sensor_id;sensor_type;location;lat;lon;timestamp;P1;durP1;ratioP1;P2;durP2;ratioP2
21601;SDS011;10963;50.934;4.668;2023-10-19T00:00:32;6.40;;;2.07;;
21601;SDS011;10963;50.934;4.668;2023-10-19T00:02:59;9.20;;;2.30;;
21601;SDS011;10963;50.934;4.668;2023-10-19T00:05:28;3.20;;;2.20;;
21601;SDS011;10963;50.934;4.668;2023-10-19T00:07:56;4.93;;;2.47;;
21601;SDS011;10963;50.934;4.668;2023-10-19T00:10:30;4.17;;;1.50;;
21601;SDS011;10963;50.934;4.668;2023-10-19T00:13:05;5.10;;;1.70;;
21601;SDS011;10963;50.934;4.668;2023-10-19T00:15:36;4.63;;;1.57;;
21601;SDS011;10963;50.934;4.668;2023-10-19T00:18:14;3.80;;;1.40;;
21601;SDS011;10963;50.934;4.668;2023-10-19T00:20:41;3.73;;;1.60;;
21601;SDS011;10963;50.934;4.668;2023-10-19T00:23:13;3.47;;;1.47;;
21601;SDS011;10963;50.934;4.668;2023-10-19T00:25:46;3.10;;;1.70;;
21601;SDS011;10963;50.934;4.668;2023-10-19T00:28:19;3.50;;;1.80;;
21601;SDS011;10963;50.934;4.668;2023-10-19T00:30:44;3.57;;;1.60;;
21601;SDS011;10963;50.934;4.668;2023-10-19T00:33:14;6.13;;;1.33;;
21601;SDS011;10963;50.934;4.668;2023-10-19T00:35:46;3.70;;;1.80;;
21601;SDS011;10963;50.934;4.668;2023-10-19T00:38:26;5.53;;;2.13;;
21601;SDS011;10963;50.934;4.668;2023-10-19T00:40:55;6.23;;;1.70;;
21601;SDS011;10963;50.934;4.668;2023-10-19T00:43:29;3.50;;;1.50;;
21601;SDS011;10963;50.934;4.668;2023-10-19T00:46:04;5.10;;;1.53;;
21601;SDS011;10963;50.934;4.668;2023-10-19T00:51:29;3.63;;;1.60;;
21601;SDS011;10963;50.934;4.668;2023-10-19T00:54:32;2.53;;;0.90;;
21601;SDS011;10963;50.934;4.668;2023-10-19T00:57:15;5.70;;;1.60;;
21601;SDS011;10963;50.934;4.668;2023-10-19T00:59:45;1.40;;;0.70;;
21601;SDS011;10963;50.934;4.668;2023-10-19T01:02:19;3.23;;;0.80;;
21601;SDS011;10963;50.934;4.668;2023-10-19T01:04:52;6.80;;;1.00;;
21601;SDS011;10963;50.934;4.668;2023-10-19T01:07:26;3.77;;;1.10;;
21601;SDS011;10963;50.934;4.668;2023-10-19T01:09:58;1.43;;;0.80;;
21601;SDS011;10963;50.934;4.668;2023-10-19T01:12:30;0.80;;;0.50;;
21601;SDS011;10963;50.934;4.668;2023-10-19T01:17:56;2.60;;;1.00;;
21601;SDS011;10963;50.934;4.668;2023-10-19T01:20:25;2.10;;;0.80;;
21601;SDS011;10963;50.934;4.668;2023-10-19T01:28:07;4.80;;;1.57;;
21601;SDS011;10963;50.934;4.668;2023-10-19T01:30:34;4.47;;;0.90;;
21601;SDS011;10963;50.934;4.668;2023-10-19T01:33:04;5.77;;;0.97;;
21601;SDS011;10963;50.934;4.668;2023-10-19T01:35:37;2.70;;;0.80;;
21601;SDS011;10963;50.934;4.668;2023-10-19T01:38:22;1.30;;;0.80;;
21601;SDS011;10963;50.934;4.668;2023-10-19T01:40:50;4.50;;;0.67;;
21601;SDS011;10963;50.934;4.668;2023-10-19T01:43:22;4.63;;;0.60;;
21601;SDS011;10963;50.934;4.668;2023-10-19T01:45:53;1.77;;;0.67;;
21601;SDS011;10963;50.934;4.668;2023-10-19T01:48:22;3.57;;;0.80;;
21601;SDS011;10963;50.934;4.668;2023-10-19T01:50:57;1.17;;;0.70;;
21601;SDS011;10963;50.934;4.668;2023-10-19T01:53:22;4.90;;;0.93;;
21601;SDS011;10963;50.934;4.668;2023-10-19T01:55:50;2.27;;;0.50;;
21601;SDS011;10963;50.934;4.668;2023-10-19T01:58:25;3.97;;;0.80;;
21601;SDS011;10963;50.934;4.668;2023-10-19T02:00:54;0.90;;;0.80;;
21601;SDS011;10963;50.934;4.668;2023-10-19T02:03:25;2.33;;;0.70;;
21601;SDS011;10963;50.934;4.668;2023-10-19T02:05:57;7.03;;;1.03;;
21601;SDS011;10963;50.934;4.668;2023-10-19T02:08:35;3.00;;;1.10;;
21601;SDS011;10963;50.934;4.668;2023-10-19T02:11:07;5.60;;;0.97;;
21601;SDS011;10963;50.934;4.668;2023-10-19T02:13:44;2.53;;;0.63;;
21601;SDS011;10963;50.934;4.668;2023-10-19T02:16:15;4.17;;;0.70;;
21601;SDS011;10963;50.934;4.668;2023-10-19T02:18:50;5.10;;;0.83;;
21601;SDS011;10963;50.934;4.668;2023-10-19T02:21:17;5.30;;;0.93;;
21601;SDS011;10963;50.934;4.668;2023-10-19T02:23:55;4.93;;;0.90;;
21601;SDS011;10963;50.934;4.668;2023-10-19T02:26:22;3.73;;;1.03;;
21601;SDS011;10963;50.934;4.668;2023-10-19T02:28:55;2.70;;;1.10;;
21601;SDS011;10963;50.934;4.668;2023-10-19T02:31:24;7.47;;;1.40;;
21601;SDS011;10963;50.934;4.668;2023-10-19T02:33:55;5.90;;;1.43;;
21601;SDS011;10963;50.934;4.668;2023-10-19T02:36:24;4.53;;;0.90;;
21601;SDS011;10963;50.934;4.668;2023-10-19T02:39:04;2.33;;;1.00;;
21601;SDS011;10963;50.934;4.668;2023-10-19T02:41:35;2.97;;;0.90;;
21601;SDS011;10963;50.934;4.668;2023-10-19T02:44:09;4.53;;;1.00;;
21601;SDS011;10963;50.934;4.668;2023-10-19T02:46:41;3.27;;;1.00;;
21601;SDS011;10963;50.934;4.668;2023-10-19T02:49:07;4.00;;;1.17;;
21601;SDS011;10963;50.934;4.668;2023-10-19T02:51:39;5.20;;;1.33;;
21601;SDS011;10963;50.934;4.668;2023-10-19T02:54:09;5.33;;;1.10;;
21601;SDS011;10963;50.934;4.668;2023-10-19T02:56:45;5.07;;;1.00;;
21601;SDS011;10963;50.934;4.668;2023-10-19T02:59:14;5.73;;;1.53;;
21601;SDS011;10963;50.934;4.668;2023-10-19T03:01:42;6.83;;;1.23;;
21601;SDS011;10963;50.934;4.668;2023-10-19T03:04:11;3.47;;;1.40;;
21601;SDS011;10963;50.934;4.668;2023-10-19T03:06:40;6.93;;;1.00;;
21601;SDS011;10963;50.934;4.668;2023-10-19T03:09:07;5.80;;;1.20;;
21601;SDS011;10963;50.934;4.668;2023-10-19T03:11:51;3.30;;;1.00;;
21601;SDS011;10963;50.934;4.668;2023-10-19T03:14:24;4.80;;;1.17;;
21601;SDS011;10963;50.934;4.668;2023-10-19T03:16:53;7.47;;;1.40;;
21601;SDS011;10963;50.934;4.668;2023-10-19T03:19:22;7.23;;;2.23;;
21601;SDS011;10963;50.934;4.668;2023-10-19T03:21:52;2.50;;;1.27;;
21601;SDS011;10963;50.934;4.668;2023-10-19T03:24:27;6.50;;;1.53;;
21601;SDS011;10963;50.934;4.668;2023-10-19T03:27:02;6.63;;;1.57;;
21601;SDS011;10963;50.934;4.668;2023-10-19T03:29:46;3.93;;;1.47;;
21601;SDS011;10963;50.934;4.668;2023-10-19T03:32:18;5.17;;;1.90;;
21601;SDS011;10963;50.934;4.668;2023-10-19T03:34:47;6.33;;;1.33;;
21601;SDS011;10963;50.934;4.668;2023-10-19T03:37:14;5.70;;;2.03;;
21601;SDS011;10963;50.934;4.668;2023-10-19T03:39:44;4.23;;;1.70;;
21601;SDS011;10963;50.934;4.668;2023-10-19T03:42:16;4.60;;;1.40;;
21601;SDS011;10963;50.934;4.668;2023-10-19T03:44:44;5.03;;;1.53;;
21601;SDS011;10963;50.934;4.668;2023-10-19T03:47:13;6.00;;;1.40;;
21601;SDS011;10963;50.934;4.668;2023-10-19T03:49:43;5.67;;;1.40;;
21601;SDS011;10963;50.934;4.668;2023-10-19T03:52:09;8.17;;;1.97;;
21601;SDS011;10963;50.934;4.668;2023-10-19T03:54:35;9.80;;;1.77;;
21601;SDS011;10963;50.934;4.668;2023-10-19T03:57:08;5.67;;;1.77;;
21601;SDS011;10963;50.934;4.668;2023-10-19T03:59:47;4.20;;;1.47;;
21601;SDS011;10963;50.934;4.668;2023-10-19T04:02:25;7.93;;;1.73;;
21601;SDS011;10963;50.934;4.668;2023-10-19T04:05:00;10.17;;;1.70;;
21601;SDS011;10963;50.934;4.668;2023-10-19T04:07:26;7.93;;;1.57;;
21601;SDS011;10963;50.934;4.668;2023-10-19T04:09:58;8.93;;;1.83;;
21601;SDS011;10963;50.934;4.668;2023-10-19T04:12:33;3.87;;;1.47;;
21601;SDS011;10963;50.934;4.668;2023-10-19T04:15:05;5.80;;;1.50;;
21601;SDS011;10963;50.934;4.668;2023-10-19T04:17:37;8.23;;;1.70;;
21601;SDS011;10963;50.934;4.668;2023-10-19T04:20:11;4.77;;;1.40;;
21601;SDS011;10963;50.934;4.668;2023-10-19T04:22:41;5.57;;;1.60;;
21601;SDS011;10963;50.934;4.668;2023-10-19T04:25:09;8.53;;;1.47;;
21601;SDS011;10963;50.934;4.668;2023-10-19T04:27:37;8.87;;;1.80;;
21601;SDS011;10963;50.934;4.668;2023-10-19T04:30:07;6.73;;;1.80;;
21601;SDS011;10963;50.934;4.668;2023-10-19T04:32:50;9.13;;;1.57;;
21601;SDS011;10963;50.934;4.668;2023-10-19T04:35:20;6.23;;;1.73;;
21601;SDS011;10963;50.934;4.668;2023-10-19T04:37:48;13.40;;;1.87;;
21601;SDS011;10963;50.934;4.668;2023-10-19T04:40:15;10.47;;;1.60;;
21601;SDS011;10963;50.934;4.668;2023-10-19T04:42:44;6.50;;;1.60;;
21601;SDS011;10963;50.934;4.668;2023-10-19T04:45:11;4.33;;;1.60;;
21601;SDS011;10963;50.934;4.668;2023-10-19T04:47:37;7.13;;;2.17;;
21601;SDS011;10963;50.934;4.668;2023-10-19T04:50:03;15.13;;;1.80;;
21601;SDS011;10963;50.934;4.668;2023-10-19T04:52:30;7.07;;;1.73;;
21601;SDS011;10963;50.934;4.668;2023-10-19T04:54:59;7.07;;;1.93;;
21601;SDS011;10963;50.934;4.668;2023-10-19T04:57:26;8.53;;;1.80;;
21601;SDS011;10963;50.934;4.668;2023-10-19T04:59:54;10.40;;;1.93;;
21601;SDS011;10963;50.934;4.668;2023-10-19T05:02:22;9.93;;;2.10;;
21601;SDS011;10963;50.934;4.668;2023-10-19T05:04:50;7.67;;;1.73;;
21601;SDS011;10963;50.934;4.668;2023-10-19T05:07:16;8.43;;;1.90;;
21601;SDS011;10963;50.934;4.668;2023-10-19T05:09:46;10.83;;;1.63;;
21601;SDS011;10963;50.934;4.668;2023-10-19T05:12:16;10.43;;;1.73;;
21601;SDS011;10963;50.934;4.668;2023-10-19T05:14:44;5.00;;;2.27;;
21601;SDS011;10963;50.934;4.668;2023-10-19T05:17:12;6.47;;;1.50;;
21601;SDS011;10963;50.934;4.668;2023-10-19T05:19:39;7.23;;;2.10;;
21601;SDS011;10963;50.934;4.668;2023-10-19T05:22:08;7.17;;;1.50;;
21601;SDS011;10963;50.934;4.668;2023-10-19T05:24:36;9.33;;;2.33;;
21601;SDS011;10963;50.934;4.668;2023-10-19T05:27:04;7.40;;;2.10;;
21601;SDS011;10963;50.934;4.668;2023-10-19T05:29:35;5.47;;;1.90;;
21601;SDS011;10963;50.934;4.668;2023-10-19T05:32:01;7.30;;;1.97;;
21601;SDS011;10963;50.934;4.668;2023-10-19T05:34:31;8.43;;;2.00;;
21601;SDS011;10963;50.934;4.668;2023-10-19T05:37:00;7.80;;;1.70;;
21601;SDS011;10963;50.934;4.668;2023-10-19T05:39:30;7.73;;;2.00;;
21601;SDS011;10963;50.934;4.668;2023-10-19T05:41:56;9.67;;;2.00;;
21601;SDS011;10963;50.934;4.668;2023-10-19T05:44:28;18.13;;;2.13;;
21601;SDS011;10963;50.934;4.668;2023-10-19T05:46:55;6.40;;;2.27;;
21601;SDS011;10963;50.934;4.668;2023-10-19T05:49:22;5.87;;;1.70;;
21601;SDS011;10963;50.934;4.668;2023-10-19T05:51:49;9.00;;;1.97;;
21601;SDS011;10963;50.934;4.668;2023-10-19T05:54:15;9.47;;;1.97;;
21601;SDS011;10963;50.934;4.668;2023-10-19T05:56:48;10.47;;;2.03;;
21601;SDS011;10963;50.934;4.668;2023-10-19T05:59:19;12.40;;;2.13;;
21601;SDS011;10963;50.934;4.668;2023-10-19T06:01:51;8.07;;;1.60;;
21601;SDS011;10963;50.934;4.668;2023-10-19T06:04:17;7.80;;;1.80;;
21601;SDS011;10963;50.934;4.668;2023-10-19T06:06:43;4.00;;;1.47;;
21601;SDS011;10963;50.934;4.668;2023-10-19T06:09:11;9.20;;;2.10;;
21601;SDS011;10963;50.934;4.668;2023-10-19T06:11:37;5.43;;;2.20;;
21601;SDS011;10963;50.934;4.668;2023-10-19T06:14:09;9.13;;;1.90;;
21601;SDS011;10963;50.934;4.668;2023-10-19T06:16:35;8.33;;;2.80;;
21601;SDS011;10963;50.934;4.668;2023-10-19T06:19:01;7.77;;;2.03;;
21601;SDS011;10963;50.934;4.668;2023-10-19T06:21:29;7.57;;;1.90;;
21601;SDS011;10963;50.934;4.668;2023-10-19T06:23:57;7.63;;;2.53;;
21601;SDS011;10963;50.934;4.668;2023-10-19T06:26:26;9.33;;;2.20;;
21601;SDS011;10963;50.934;4.668;2023-10-19T06:28:51;8.40;;;2.30;;
21601;SDS011;10963;50.934;4.668;2023-10-19T06:31:22;11.43;;;2.30;;
21601;SDS011;10963;50.934;4.668;2023-10-19T06:33:49;5.97;;;2.47;;
21601;SDS011;10963;50.934;4.668;2023-10-19T06:36:17;7.23;;;2.20;;
21601;SDS011;10963;50.934;4.668;2023-10-19T06:38:45;8.33;;;2.93;;
21601;SDS011;10963;50.934;4.668;2023-10-19T06:41:14;10.97;;;2.40;;
21601;SDS011;10963;50.934;4.668;2023-10-19T06:43:43;8.63;;;2.13;;
21601;SDS011;10963;50.934;4.668;2023-10-19T06:46:11;10.77;;;2.20;;
21601;SDS011;10963;50.934;4.668;2023-10-19T06:48:37;9.03;;;2.40;;
21601;SDS011;10963;50.934;4.668;2023-10-19T06:51:07;5.57;;;1.70;;
21601;SDS011;10963;50.934;4.668;2023-10-19T06:53:33;8.20;;;2.43;;
21601;SDS011;10963;50.934;4.668;2023-10-19T06:55:59;9.43;;;2.23;;
21601;SDS011;10963;50.934;4.668;2023-10-19T06:58:25;13.23;;;2.40;;
21601;SDS011;10963;50.934;4.668;2023-10-19T07:00:53;9.80;;;2.10;;
21601;SDS011;10963;50.934;4.668;2023-10-19T07:03:24;8.23;;;2.23;;
21601;SDS011;10963;50.934;4.668;2023-10-19T07:05:51;9.37;;;2.37;;
21601;SDS011;10963;50.934;4.668;2023-10-19T07:08:18;12.93;;;2.60;;
21601;SDS011;10963;50.934;4.668;2023-10-19T07:10:46;7.27;;;2.20;;
21601;SDS011;10963;50.934;4.668;2023-10-19T07:13:12;9.60;;;2.07;;
21601;SDS011;10963;50.934;4.668;2023-10-19T07:15:39;7.30;;;1.97;;
21601;SDS011;10963;50.934;4.668;2023-10-19T07:18:06;11.37;;;2.57;;
21601;SDS011;10963;50.934;4.668;2023-10-19T07:20:32;6.43;;;2.60;;
21601;SDS011;10963;50.934;4.668;2023-10-19T07:23:01;21.73;;;3.10;;
21601;SDS011;10963;50.934;4.668;2023-10-19T07:25:45;12.03;;;2.70;;
21601;SDS011;10963;50.934;4.668;2023-10-19T07:28:19;13.60;;;2.20;;
21601;SDS011;10963;50.934;4.668;2023-10-19T07:30:48;8.50;;;2.53;;
21601;SDS011;10963;50.934;4.668;2023-10-19T07:33:16;7.47;;;2.23;;
21601;SDS011;10963;50.934;4.668;2023-10-19T07:35:50;7.17;;;2.30;;
21601;SDS011;10963;50.934;4.668;2023-10-19T07:38:25;6.87;;;2.07;;
21601;SDS011;10963;50.934;4.668;2023-10-19T07:40:53;7.93;;;2.00;;
21601;SDS011;10963;50.934;4.668;2023-10-19T07:43:24;11.70;;;2.20;;
21601;SDS011;10963;50.934;4.668;2023-10-19T07:45:50;9.17;;;2.10;;
21601;SDS011;10963;50.934;4.668;2023-10-19T07:48:17;9.90;;;2.43;;
21601;SDS011;10963;50.934;4.668;2023-10-19T07:50:47;11.83;;;2.70;;
21601;SDS011;10963;50.934;4.668;2023-10-19T07:53:13;10.30;;;1.93;;
21601;SDS011;10963;50.934;4.668;2023-10-19T07:55:39;14.03;;;2.50;;
21601;SDS011;10963;50.934;4.668;2023-10-19T07:58:05;8.00;;;2.33;;
21601;SDS011;10963;50.934;4.668;2023-10-19T08:00:33;10.43;;;3.30;;
21601;SDS011;10963;50.934;4.668;2023-10-19T08:02:59;10.67;;;3.73;;
21601;SDS011;10963;50.934;4.668;2023-10-19T08:05:30;7.30;;;2.50;;
21601;SDS011;10963;50.934;4.668;2023-10-19T08:07:57;11.77;;;2.73;;
21601;SDS011;10963;50.934;4.668;2023-10-19T08:10:26;5.83;;;1.77;;
21601;SDS011;10963;50.934;4.668;2023-10-19T08:12:52;12.90;;;2.23;;
21601;SDS011;10963;50.934;4.668;2023-10-19T08:15:18;9.57;;;1.93;;
21601;SDS011;10963;50.934;4.668;2023-10-19T08:17:46;11.70;;;2.67;;
21601;SDS011;10963;50.934;4.668;2023-10-19T08:20:15;8.37;;;2.90;;
21601;SDS011;10963;50.934;4.668;2023-10-19T08:22:44;6.03;;;2.43;;
21601;SDS011;10963;50.934;4.668;2023-10-19T08:25:13;9.50;;;2.13;;
21601;SDS011;10963;50.934;4.668;2023-10-19T08:27:43;9.67;;;2.30;;
21601;SDS011;10963;50.934;4.668;2023-10-19T08:30:13;10.83;;;2.40;;
21601;SDS011;10963;50.934;4.668;2023-10-19T08:32:40;12.30;;;2.47;;
21601;SDS011;10963;50.934;4.668;2023-10-19T08:35:07;8.30;;;2.37;;
21601;SDS011;10963;50.934;4.668;2023-10-19T08:37:36;9.33;;;2.53;;
21601;SDS011;10963;50.934;4.668;2023-10-19T08:40:10;13.63;;;2.30;;
21601;SDS011;10963;50.934;4.668;2023-10-19T08:42:45;12.00;;;2.50;;
21601;SDS011;10963;50.934;4.668;2023-10-19T08:45:11;12.33;;;2.47;;
21601;SDS011;10963;50.934;4.668;2023-10-19T08:47:48;9.50;;;2.20;;
21601;SDS011;10963;50.934;4.668;2023-10-19T08:50:26;12.23;;;2.20;;
21601;SDS011;10963;50.934;4.668;2023-10-19T08:52:54;10.90;;;2.10;;
21601;SDS011;10963;50.934;4.668;2023-10-19T08:55:21;13.40;;;2.10;;
21601;SDS011;10963;50.934;4.668;2023-10-19T08:57:49;10.50;;;2.40;;
21601;SDS011;10963;50.934;4.668;2023-10-19T09:00:18;8.43;;;2.83;;
21601;SDS011;10963;50.934;4.668;2023-10-19T09:02:50;10.50;;;2.63;;
21601;SDS011;10963;50.934;4.668;2023-10-19T09:05:17;11.77;;;1.93;;
21601;SDS011;10963;50.934;4.668;2023-10-19T09:07:53;9.67;;;2.73;;
21601;SDS011;10963;50.934;4.668;2023-10-19T09:10:25;11.80;;;2.10;;
21601;SDS011;10963;50.934;4.668;2023-10-19T09:12:59;7.70;;;2.00;;
21601;SDS011;10963;50.934;4.668;2023-10-19T09:15:29;7.13;;;2.10;;
21601;SDS011;10963;50.934;4.668;2023-10-19T09:17:58;9.47;;;2.63;;
21601;SDS011;10963;50.934;4.668;2023-10-19T09:20:24;7.23;;;2.03;;
21601;SDS011;10963;50.934;4.668;2023-10-19T09:22:55;10.00;;;2.70;;
21601;SDS011;10963;50.934;4.668;2023-10-19T09:25:26;10.47;;;2.00;;
21601;SDS011;10963;50.934;4.668;2023-10-19T09:27:52;9.27;;;2.53;;
21601;SDS011;10963;50.934;4.668;2023-10-19T09:30:18;14.17;;;3.07;;
21601;SDS011;10963;50.934;4.668;2023-10-19T09:32:46;16.50;;;2.20;;
21601;SDS011;10963;50.934;4.668;2023-10-19T09:35:15;8.53;;;2.13;;
21601;SDS011;10963;50.934;4.668;2023-10-19T09:37:44;10.43;;;2.07;;
21601;SDS011;10963;50.934;4.668;2023-10-19T09:40:12;12.73;;;2.27;;
21601;SDS011;10963;50.934;4.668;2023-10-19T09:42:42;9.77;;;1.97;;
21601;SDS011;10963;50.934;4.668;2023-10-19T09:45:16;15.80;;;2.73;;
21601;SDS011;10963;50.934;4.668;2023-10-19T09:47:50;12.37;;;3.07;;
21601;SDS011;10963;50.934;4.668;2023-10-19T09:50:17;11.07;;;2.23;;
21601;SDS011;10963;50.934;4.668;2023-10-19T09:52:45;12.03;;;2.40;;
21601;SDS011;10963;50.934;4.668;2023-10-19T09:58:03;9.93;;;2.27;;
21601;SDS011;10963;50.934;4.668;2023-10-19T10:00:46;11.87;;;2.23;;
21601;SDS011;10963;50.934;4.668;2023-10-19T10:06:14;7.57;;;2.03;;
21601;SDS011;10963;50.934;4.668;2023-10-19T10:08:41;7.50;;;2.50;;
21601;SDS011;10963;50.934;4.668;2023-10-19T10:11:15;14.00;;;2.60;;
21601;SDS011;10963;50.934;4.668;2023-10-19T10:13:43;16.23;;;2.23;;
21601;SDS011;10963;50.934;4.668;2023-10-19T10:16:17;12.67;;;2.17;;
21601;SDS011;10963;50.934;4.668;2023-10-19T10:18:45;11.07;;;2.33;;
21601;SDS011;10963;50.934;4.668;2023-10-19T10:21:14;6.00;;;2.17;;
21601;SDS011;10963;50.934;4.668;2023-10-19T10:26:15;7.63;;;2.80;;
21601;SDS011;10963;50.934;4.668;2023-10-19T10:28:45;10.90;;;2.13;;
21601;SDS011;10963;50.934;4.668;2023-10-19T10:31:34;9.17;;;1.90;;
21601;SDS011;10963;50.934;4.668;2023-10-19T10:34:05;12.60;;;2.23;;
21601;SDS011;10963;50.934;4.668;2023-10-19T10:39:42;11.13;;;2.00;;
21601;SDS011;10963;50.934;4.668;2023-10-19T10:42:09;10.10;;;2.30;;
21601;SDS011;10963;50.934;4.668;2023-10-19T10:55:15;10.33;;;2.43;;
21601;SDS011;10963;50.934;4.668;2023-10-19T10:57:41;7.83;;;2.03;;
21601;SDS011;10963;50.934;4.668;2023-10-19T11:00:14;12.60;;;2.20;;
21601;SDS011;10963;50.934;4.668;2023-10-19T11:02:44;9.37;;;2.70;;
21601;SDS011;10963;50.934;4.668;2023-10-19T11:05:23;12.90;;;2.37;;
21601;SDS011;10963;50.934;4.668;2023-10-19T11:08:08;15.20;;;2.50;;
21601;SDS011;10963;50.934;4.668;2023-10-19T11:10:38;11.83;;;2.20;;
21601;SDS011;10963;50.934;4.668;2023-10-19T11:13:05;9.03;;;2.30;;
21601;SDS011;10963;50.934;4.668;2023-10-19T11:15:39;14.73;;;2.50;;
21601;SDS011;10963;50.934;4.668;2023-10-19T11:21:01;6.73;;;2.40;;
21601;SDS011;10963;50.934;4.668;2023-10-19T11:26:03;13.43;;;2.40;;
21601;SDS011;10963;50.934;4.668;2023-10-19T11:28:32;11.83;;;3.20;;
21601;SDS011;10963;50.934;4.668;2023-10-19T11:31:16;11.87;;;2.43;;
21601;SDS011;10963;50.934;4.668;2023-10-19T11:33:42;13.83;;;3.17;;
21601;SDS011;10963;50.934;4.668;2023-10-19T11:36:09;10.57;;;2.13;;
21601;SDS011;10963;50.934;4.668;2023-10-19T11:38:38;12.93;;;3.07;;
21601;SDS011;10963;50.934;4.668;2023-10-19T11:41:06;11.50;;;2.73;;
21601;SDS011;10963;50.934;4.668;2023-10-19T11:43:33;11.17;;;2.93;;
21601;SDS011;10963;50.934;4.668;2023-10-19T11:45:59;8.73;;;3.23;;
21601;SDS011;10963;50.934;4.668;2023-10-19T11:48:25;9.23;;;2.53;;
21601;SDS011;10963;50.934;4.668;2023-10-19T11:50:51;8.77;;;2.47;;
21601;SDS011;10963;50.934;4.668;2023-10-19T11:53:18;9.70;;;2.50;;
21601;SDS011;10963;50.934;4.668;2023-10-19T11:55:48;8.53;;;2.23;;
21601;SDS011;10963;50.934;4.668;2023-10-19T11:58:14;10.60;;;2.87;;
21601;SDS011;10963;50.934;4.668;2023-10-19T12:00:40;5.83;;;2.03;;
21601;SDS011;10963;50.934;4.668;2023-10-19T12:03:12;5.70;;;2.37;;
21601;SDS011;10963;50.934;4.668;2023-10-19T12:05:41;4.40;;;2.13;;
21601;SDS011;10963;50.934;4.668;2023-10-19T12:08:09;7.57;;;2.20;;
21601;SDS011;10963;50.934;4.668;2023-10-19T12:10:35;8.13;;;2.30;;
21601;SDS011;10963;50.934;4.668;2023-10-19T12:13:04;7.50;;;2.37;;
21601;SDS011;10963;50.934;4.668;2023-10-19T12:15:35;7.20;;;2.27;;
21601;SDS011;10963;50.934;4.668;2023-10-19T12:18:03;7.43;;;1.90;;
21601;SDS011;10963;50.934;4.668;2023-10-19T12:20:29;9.47;;;2.00;;
21601;SDS011;10963;50.934;4.668;2023-10-19T12:22:58;8.30;;;2.17;;
21601;SDS011;10963;50.934;4.668;2023-10-19T12:25:24;6.60;;;2.10;;
21601;SDS011;10963;50.934;4.668;2023-10-19T12:28:02;13.10;;;2.80;;
21601;SDS011;10963;50.934;4.668;2023-10-19T12:30:32;4.60;;;1.90;;
21601;SDS011;10963;50.934;4.668;2023-10-19T12:33:02;7.83;;;2.33;;
21601;SDS011;10963;50.934;4.668;2023-10-19T12:35:40;9.27;;;2.90;;
21601;SDS011;10963;50.934;4.668;2023-10-19T12:38:24;5.70;;;2.27;;
21601;SDS011;10963;50.934;4.668;2023-10-19T12:40:53;9.77;;;2.60;;
21601;SDS011;10963;50.934;4.668;2023-10-19T12:43:21;9.50;;;2.37;;
21601;SDS011;10963;50.934;4.668;2023-10-19T12:45:55;5.80;;;2.03;;
21601;SDS011;10963;50.934;4.668;2023-10-19T12:48:22;6.70;;;1.80;;
21601;SDS011;10963;50.934;4.668;2023-10-19T12:50:55;7.77;;;2.27;;
21601;SDS011;10963;50.934;4.668;2023-10-19T12:53:23;7.97;;;2.33;;
21601;SDS011;10963;50.934;4.668;2023-10-19T12:55:51;8.57;;;2.13;;
21601;SDS011;10963;50.934;4.668;2023-10-19T12:58:19;7.53;;;2.77;;
21601;SDS011;10963;50.934;4.668;2023-10-19T13:00:46;11.00;;;2.60;;
21601;SDS011;10963;50.934;4.668;2023-10-19T13:03:14;7.07;;;2.17;;
21601;SDS011;10963;50.934;4.668;2023-10-19T13:05:41;3.20;;;2.10;;
21601;SDS011;10963;50.934;4.668;2023-10-19T13:08:12;6.23;;;1.80;;
21601;SDS011;10963;50.934;4.668;2023-10-19T13:10:39;4.60;;;1.57;;
21601;SDS011;10963;50.934;4.668;2023-10-19T13:13:07;6.13;;;2.27;;
21601;SDS011;10963;50.934;4.668;2023-10-19T13:15:37;3.37;;;1.87;;
21601;SDS011;10963;50.934;4.668;2023-10-19T13:18:07;5.13;;;1.80;;
21601;SDS011;10963;50.934;4.668;2023-10-19T13:20:50;5.30;;;1.80;;
21601;SDS011;10963;50.934;4.668;2023-10-19T13:23:19;2.73;;;1.57;;
21601;SDS011;10963;50.934;4.668;2023-10-19T13:25:48;3.43;;;1.50;;
21601;SDS011;10963;50.934;4.668;2023-10-19T13:28:15;0.80;;;0.80;;
21601;SDS011;10963;50.934;4.668;2023-10-19T13:30:48;2.33;;;1.17;;
21601;SDS011;10963;50.934;4.668;2023-10-19T13:33:17;4.60;;;1.40;;
21601;SDS011;10963;50.934;4.668;2023-10-19T13:35:51;2.50;;;1.10;;
21601;SDS011;10963;50.934;4.668;2023-10-19T13:38:18;3.67;;;1.40;;
21601;SDS011;10963;50.934;4.668;2023-10-19T13:40:47;3.23;;;0.93;;
21601;SDS011;10963;50.934;4.668;2023-10-19T13:43:16;1.63;;;0.93;;
21601;SDS011;10963;50.934;4.668;2023-10-19T13:45:45;1.67;;;1.20;;
21601;SDS011;10963;50.934;4.668;2023-10-19T13:48:14;2.83;;;1.20;;
21601;SDS011;10963;50.934;4.668;2023-10-19T13:50:46;2.57;;;0.90;;
21601;SDS011;10963;50.934;4.668;2023-10-19T13:53:13;1.90;;;1.00;;
21601;SDS011;10963;50.934;4.668;2023-10-19T13:55:42;1.13;;;0.80;;
21601;SDS011;10963;50.934;4.668;2023-10-19T13:58:11;2.50;;;0.93;;
21601;SDS011;10963;50.934;4.668;2023-10-19T14:00:40;2.07;;;0.90;;
21601;SDS011;10963;50.934;4.668;2023-10-19T14:03:11;1.17;;;0.83;;
21601;SDS011;10963;50.934;4.668;2023-10-19T14:05:45;2.67;;;1.20;;
21601;SDS011;10963;50.934;4.668;2023-10-19T14:08:15;2.30;;;1.27;;
21601;SDS011;10963;50.934;4.668;2023-10-19T14:10:42;1.23;;;0.70;;
21601;SDS011;10963;50.934;4.668;2023-10-19T14:13:10;3.40;;;0.90;;
21601;SDS011;10963;50.934;4.668;2023-10-19T14:15:45;1.50;;;0.70;;
21601;SDS011;10963;50.934;4.668;2023-10-19T14:18:10;1.27;;;1.00;;
21601;SDS011;10963;50.934;4.668;2023-10-19T14:20:39;2.50;;;0.90;;
21601;SDS011;10963;50.934;4.668;2023-10-19T14:23:09;2.03;;;0.80;;
21601;SDS011;10963;50.934;4.668;2023-10-19T14:25:38;2.30;;;1.20;;
21601;SDS011;10963;50.934;4.668;2023-10-19T14:28:09;1.17;;;1.10;;
21601;SDS011;10963;50.934;4.668;2023-10-19T14:30:35;2.30;;;1.10;;
21601;SDS011;10963;50.934;4.668;2023-10-19T14:33:01;1.47;;;1.13;;
21601;SDS011;10963;50.934;4.668;2023-10-19T14:35:34;1.40;;;1.03;;
21601;SDS011;10963;50.934;4.668;2023-10-19T14:38:04;1.73;;;1.03;;
21601;SDS011;10963;50.934;4.668;2023-10-19T14:40:37;4.20;;;1.47;;
21601;SDS011;10963;50.934;4.668;2023-10-19T14:43:08;3.23;;;1.17;;
21601;SDS011;10963;50.934;4.668;2023-10-19T14:45:34;1.43;;;0.90;;
21601;SDS011;10963;50.934;4.668;2023-10-19T14:48:00;2.13;;;1.17;;
21601;SDS011;10963;50.934;4.668;2023-10-19T14:50:29;3.13;;;1.30;;
21601;SDS011;10963;50.934;4.668;2023-10-19T14:52:57;2.77;;;1.20;;
21601;SDS011;10963;50.934;4.668;2023-10-19T14:55:24;2.20;;;1.20;;
21601;SDS011;10963;50.934;4.668;2023-10-19T14:57:51;1.40;;;1.10;;
21601;SDS011;10963;50.934;4.668;2023-10-19T15:00:18;1.83;;;1.10;;
21601;SDS011;10963;50.934;4.668;2023-10-19T15:02:53;1.90;;;0.90;;
21601;SDS011;10963;50.934;4.668;2023-10-19T15:05:20;1.27;;;1.03;;
21601;SDS011;10963;50.934;4.668;2023-10-19T15:07:51;2.93;;;0.90;;
21601;SDS011;10963;50.934;4.668;2023-10-19T15:10:22;2.77;;;0.93;;
21601;SDS011;10963;50.934;4.668;2023-10-19T15:12:50;2.63;;;1.00;;
21601;SDS011;10963;50.934;4.668;2023-10-19T15:15:15;2.53;;;1.20;;
21601;SDS011;10963;50.934;4.668;2023-10-19T15:17:44;1.67;;;0.93;;
21601;SDS011;10963;50.934;4.668;2023-10-19T15:20:10;1.10;;;1.00;;
21601;SDS011;10963;50.934;4.668;2023-10-19T15:22:40;1.10;;;0.83;;
21601;SDS011;10963;50.934;4.668;2023-10-19T15:25:06;4.73;;;1.40;;
21601;SDS011;10963;50.934;4.668;2023-10-19T15:27:38;1.40;;;0.97;;
21601;SDS011;10963;50.934;4.668;2023-10-19T15:30:11;2.90;;;1.17;;
21601;SDS011;10963;50.934;4.668;2023-10-19T15:32:38;2.13;;;1.10;;
21601;SDS011;10963;50.934;4.668;2023-10-19T15:35:07;3.17;;;1.10;;
21601;SDS011;10963;50.934;4.668;2023-10-19T15:37:38;2.93;;;1.10;;
21601;SDS011;10963;50.934;4.668;2023-10-19T15:40:04;2.37;;;1.17;;